Terminal Aerodrome Forecast
Issued by NWS

Home | Current Version | Previous Version | Text Only | Print | Product List | Glossary On
Versions: 1 2 3 4 5 6 7 8 9 10 11 12 13 14 15 16 17 18 19 20 21 22 23 24 25
000
FTUS42 KMLB 272331
TAFTIX
TAF
KTIX 272331Z 2800/2824 21007KT P6SM SCT030 SCT100 BKN150
     FM280800 19005KT P6SM FEW010 SCT020 BKN150
     FM281500 21006KT P6SM VCSH SCT020 BKN040
     FM281800 24012KT P6SM VCTS SCT035CB BKN060
      AMD NOT SKED 2801/2811=

USA.gov is the U.S. government's official web portal to all federal, state and local government web resources and services.